Time;durP1;ratioP1;P1;durP2;ratioP2;P2;SDS_P1;SDS_P2;PMS_P1;PMS_P2;Temp;Humidity;BMP_temperature;BMP_pressure;BME280_temperature;BME280_humidity;BME280_pressure;Samples;Min_cycle;Max_cycle;Signal;HPM_P1;HPM_P2
2023/12/13 00:01:31;;;;;;;54.50;29.10;;;;;;;2.36;84.17;98890.14;107639;1252;60181;-39
2023/12/13 00:03:59;;;;;;;57.30;29.50;;;;;;;2.37;83.94;98893.20;107626;1254;73896;-40
2023/12/13 00:06:28;;;;;;;56.20;29.20;;;;;;;2.36;83.98;98891.22;107611;1256;66275;-40
2023/12/13 00:08:55;;;;;;;58.00;29.50;;;;;;;2.35;83.86;98894.14;107622;1254;71436;-38
2023/12/13 00:11:23;;;;;;;55.90;28.80;;;;;;;2.32;83.85;98893.04;107567;1256;60434;-37
2023/12/13 00:13:50;;;;;;;54.10;27.90;;;;;;;2.31;83.49;98896.41;107612;1255;60459;-37
2023/12/13 00:16:19;;;;;;;52.60;27.80;;;;;;;2.34;83.46;98895.88;107693;1254;72177;-37
2023/12/13 00:18:47;;;;;;;50.40;26.80;;;;;;;2.40;83.15;98897.73;107614;1255;67750;-38
2023/12/13 00:21:17;;;;;;;54.50;28.50;;;;;;;2.41;83.29;98897.33;107606;1255;72632;-38
2023/12/13 00:23:47;;;;;;;51.30;27.60;;;;;;;2.39;83.52;98896.24;107582;1255;60581;-38
2023/12/13 00:26:16;;;;;;;56.60;28.10;;;;;;;2.41;83.67;98898.70;107688;1254;60466;-38
2023/12/13 00:28:43;;;;;;;56.30;28.30;;;;;;;2.41;83.48;98903.90;107751;1254;73835;-38
2023/12/13 00:31:11;;;;;;;57.60;29.20;;;;;;;2.40;83.32;98908.11;107617;1254;67561;-38
2023/12/13 00:33:39;;;;;;;53.20;28.20;;;;;;;2.41;82.75;98902.23;107673;1254;71443;-38
2023/12/13 00:36:07;;;;;;;53.10;28.00;;;;;;;2.44;82.68;98903.25;107615;1254;60587;-39
2023/12/13 00:38:35;;;;;;;52.60;28.00;;;;;;;2.43;82.89;98898.56;107633;1254;60620;-38
2023/12/13 00:41:03;;;;;;;60.40;29.70;;;;;;;2.40;82.91;98892.73;107623;1254;73831;-38
2023/12/13 00:43:30;;;;;;;62.80;28.80;;;;;;;2.37;82.76;98888.98;107635;1254;66754;-38
2023/12/13 00:45:58;;;;;;;57.60;28.90;;;;;;;2.32;82.89;98888.77;107606;1257;72806;-38
2023/12/13 00:48:26;;;;;;;50.60;27.60;;;;;;;2.34;82.87;98885.48;107644;1257;61116;-38
2023/12/13 00:50:55;;;;;;;51.70;27.90;;;;;;;2.40;82.64;98882.59;107648;1254;59266;-38
2023/12/13 00:53:22;;;;;;;56.00;29.60;;;;;;;2.39;82.67;98882.40;107633;1254;73859;-38
2023/12/13 00:55:52;;;;;;;59.00;30.50;;;;;;;2.36;82.97;98880.58;107585;1257;67578;-38
2023/12/13 00:58:19;;;;;;;;;;;;;;;2.34;83.12;98872.33;107616;1257;72678;-38
2023/12/13 01:00:47;;;;;;;55.80;28.20;;;;;;;2.33;83.14;98872.42;107648;1252;60443;-39
2023/12/13 01:03:14;;;;;;;53.40;26.80;;;;;;;2.36;83.19;98880.36;107609;1252;60450;-39
2023/12/13 01:05:42;;;;;;;62.60;30.00;;;;;;;2.40;82.79;98883.59;107608;1254;73776;-39
2023/12/13 01:08:10;;;;;;;51.90;28.80;;;;;;;2.37;82.86;98884.83;107609;1256;67570;-39
2023/12/13 01:10:38;;;;;;;59.30;29.30;;;;;;;2.34;83.06;98882.71;107686;1254;71462;-39
2023/12/13 01:13:05;;;;;;;57.40;28.10;;;;;;;2.31;83.07;98884.30;107611;1257;60453;-39
2023/12/13 01:15:33;;;;;;;59.20;28.10;;;;;;;2.30;83.34;98879.33;107666;1256;61005;-39
2023/12/13 01:18:00;;;;;;;52.30;27.00;;;;;;;2.37;83.25;98880.73;107633;1254;73909;-39
2023/12/13 01:20:28;;;;;;;53.20;27.00;;;;;;;2.45;83.02;98878.88;107626;1256;67871;-39
2023/12/13 01:22:56;;;;;;;48.80;27.10;;;;;;;2.43;83.04;98876.26;107585;1254;72692;-39
2023/12/13 01:25:23;;;;;;;56.20;28.90;;;;;;;2.43;83.35;98869.95;107689;1252;60442;-39
2023/12/13 01:27:51;;;;;;;59.40;27.70;;;;;;;2.44;83.43;98873.66;107589;1256;60453;-39
2023/12/13 01:30:18;;;;;;;52.70;27.80;;;;;;;2.42;83.40;98872.01;107628;1254;72579;-39
2023/12/13 01:32:46;;;;;;;49.30;27.20;;;;;;;2.45;83.10;98870.90;107591;1256;68174;-39
2023/12/13 01:35:13;;;;;;;48.40;27.20;;;;;;;2.51;83.08;98869.02;107626;1254;71062;-39
2023/12/13 01:37:41;;;;;;;53.00;27.20;;;;;;;2.51;82.85;98870.86;107619;1257;60437;-39
2023/12/13 01:40:09;;;;;;;57.30;28.60;;;;;;;2.46;83.09;98869.88;107601;1256;60198;-39
2023/12/13 01:42:38;;;;;;;50.80;27.50;;;;;;;2.41;83.01;98869.38;107678;1256;73874;-39
2023/12/13 01:45:08;;;;;;;53.40;27.50;;;;;;;2.39;83.18;98867.52;107514;1258;66461;-40
2023/12/13 01:47:36;;;;;;;;;;;;;;;2.41;82.95;98865.52;107719;1254;72419;-40
2023/12/13 01:50:04;;;;;;;50.70;27.00;;;;;;;2.45;82.82;98866.84;107656;1256;60667;-40
2023/12/13 01:52:31;;;;;;;56.20;28.80;;;;;;;2.42;83.01;98870.31;107539;1253;60472;-39
2023/12/13 01:54:59;;;;;;;58.10;29.90;;;;;;;2.41;83.37;98863.11;107548;1254;73869;-39
2023/12/13 01:57:26;;;;;;;55.60;29.50;;;;;;;2.42;83.38;98865.43;107539;1258;67601;-38
2023/12/13 01:59:54;;;;;;;55.70;28.60;;;;;;;2.38;83.16;98870.90;107504;1254;72677;-38
2023/12/13 02:02:22;;;;;;;49.90;27.10;;;;;;;2.42;83.14;98866.19;107472;1260;59671;-38
2023/12/13 02:04:50;;;;;;;52.50;27.20;;;;;;;2.48;82.96;98868.19;107362;1257;60337;-38
2023/12/13 02:07:17;;;;;;;52.70;28.30;;;;;;;2.47;82.85;98869.29;107538;1254;74267;-38
2023/12/13 02:09:45;;;;;;;57.80;29.80;;;;;;;2.43;82.93;98876.70;107500;1255;67564;-38
2023/12/13 02:12:13;;;;;;;60.30;29.50;;;;;;;2.39;83.18;98879.75;107486;1260;72648;-38
2023/12/13 02:14:40;;;;;;;55.90;28.20;;;;;;;2.38;83.05;98877.80;107501;1259;60431;-38
2023/12/13 02:17:08;;;;;;;52.40;28.80;;;;;;;2.41;82.95;98878.83;107326;1254;60401;-38
2023/12/13 02:19:37;;;;;;;51.40;28.40;;;;;;;2.46;83.07;98878.30;107519;1254;73907;-38
2023/12/13 02:22:06;;;;;;;54.60;29.50;;;;;;;2.48;82.90;98877.15;107549;1259;67827;-38
2023/12/13 02:24:34;;;;;;;63.50;28.60;;;;;;;2.45;83.03;98882.90;107521;1260;70431;-38
2023/12/13 02:27:02;;;;;;;62.10;29.70;;;;;;;2.37;83.08;98881.87;107536;1254;60436;-38
2023/12/13 02:29:29;;;;;;;58.40;28.00;;;;;;;2.29;83.19;98882.52;107503;1255;60322;-38
2023/12/13 02:31:57;;;;;;;54.80;28.60;;;;;;;2.27;83.18;98881.50;107505;1260;73114;-38
2023/12/13 02:34:25;;;;;;;52.20;26.80;;;;;;;2.33;83.39;98882.83;107620;1253;67880;-39
2023/12/13 02:36:52;;;;;;;55.40;28.70;;;;;;;2.33;83.50;98885.14;107613;1258;73146;-38
2023/12/13 02:39:20;;;;;;;63.50;29.60;;;;;;;2.32;83.85;98891.95;107656;1257;59778;-38
2023/12/13 02:41:48;;;;;;;67.40;28.60;;;;;;;2.28;83.85;98892.17;107380;1257;278372;-39
2023/12/13 02:45:38;;;;;;;56.90;29.40;;;;;;;2.20;84.14;98886.88;104344;1289;600096;-39
2023/12/13 02:48:05;;;;;;;60.70;27.40;;;;;;;2.18;83.87;98887.02;106589;1266;59983;-39
2023/12/13 02:50:36;;;;;;;58.20;28.30;;;;;;;2.16;84.01;98890.69;106631;1270;59350;-39
2023/12/13 02:53:07;;;;;;;52.40;27.80;;;;;;;2.11;84.48;98894.02;106629;1265;72259;-39
2023/12/13 02:55:35;;;;;;;65.50;28.90;;;;;;;2.04;84.85;98900.66;106559;1266;66630;-39
2023/12/13 02:58:04;;;;;;;54.00;27.60;;;;;;;2.00;85.09;98902.91;106678;1266;72706;-38
2023/12/13 03:00:31;;;;;;;55.90;27.00;;;;;;;2.03;84.99;98899.18;106762;1263;61145;-38
2023/12/13 03:02:59;;;;;;;54.60;27.20;;;;;;;2.07;84.99;98896.77;106784;1263;59250;-38
2023/12/13 03:05:27;;;;;;;54.00;27.60;;;;;;;2.08;85.30;98901.85;106853;1263;71958;-38
2023/12/13 03:07:54;;;;;;;53.30;27.70;;;;;;;2.09;85.45;98902.16;106805;1263;66617;-39
2023/12/13 03:10:22;;;;;;;59.80;27.50;;;;;;;2.00;85.78;98892.23;106770;1263;71637;-39
2023/12/13 03:12:49;;;;;;;57.30;26.90;;;;;;;2.10;85.77;98902.69;106760;1263;59601;-38
2023/12/13 03:15:17;;;;;;;55.10;27.30;;;;;;;2.16;85.66;98901.05;106760;1263;59250;-38
2023/12/13 03:17:44;;;;;;;54.10;26.40;;;;;;;2.18;85.69;98903.58;106749;1262;73701;-39
2023/12/13 03:20:12;;;;;;;68.60;28.00;;;;;;;2.17;85.80;98908.91;106744;1262;67598;-39
2023/12/13 03:22:40;;;;;;;61.10;28.60;;;;;;;2.16;86.02;98916.94;106795;1263;72705;-39
2023/12/13 03:25:07;;;;;;;57.50;27.70;;;;;;;2.14;86.13;98917.61;106802;1265;59644;-39
2023/12/13 03:27:35;;;;;;;59.00;26.70;;;;;;;2.18;85.96;98916.73;106861;1263;59356;-40
2023/12/13 03:30:04;;;;;;;56.90;26.90;;;;;;;2.27;85.63;98919.38;106102;1263;1003096;-40
2023/12/13 03:32:32;;;;;;;53.10;26.40;;;;;;;2.25;85.66;98919.07;106879;1262;67566;-40
2023/12/13 03:34:59;;;;;;;63.40;27.90;;;;;;;2.20;86.01;98923.22;106814;1263;72679;-40
2023/12/13 03:37:28;;;;;;;71.70;27.40;;;;;;;2.16;86.17;98922.30;106810;1266;59720;-40
2023/12/13 03:39:56;;;;;;;57.60;26.50;;;;;;;2.12;86.23;98919.07;106875;1263;59548;-39
2023/12/13 03:42:23;;;;;;;51.10;26.00;;;;;;;2.21;86.15;98918.09;106987;1258;73041;-39
2023/12/13 03:44:51;;;;;;;57.30;27.70;;;;;;;2.31;85.99;98915.53;107030;1259;66636;-39
2023/12/13 03:47:18;;;;;;;60.90;27.40;;;;;;;2.36;86.29;98908.56;107027;1261;71403;-39
2023/12/13 03:49:46;;;;;;;57.70;27.70;;;;;;;2.41;86.44;98906.19;107019;1260;59519;-39
2023/12/13 03:52:14;;;;;;;59.10;28.30;;;;;;;2.46;86.16;98908.96;107007;1258;59209;-40
2023/12/13 03:54:42;;;;;;;52.90;26.40;;;;;;;2.47;86.10;98912.13;107060;1260;73029;-39
2023/12/13 03:57:09;;;;;;;56.60;28.00;;;;;;;2.55;85.90;98913.28;107040;1260;66277;-40
2023/12/13 03:59:37;;;;;;;51.10;26.80;;;;;;;2.67;85.56;98916.63;107298;1255;72709;-40
2023/12/13 04:02:04;;;;;;;61.60;27.50;;;;;;;2.73;85.59;98914.45;107337;1257;59684;-39
2023/12/13 04:04:35;;;;;;;56.60;25.50;;;;;;;2.76;85.53;98910.44;107262;1254;60041;-39
2023/12/13 04:07:05;;;;;;;63.00;25.90;;;;;;;2.75;85.48;98907.14;107214;1255;73031;-40
2023/12/13 04:09:33;;;;;;;56.60;25.90;;;;;;;2.76;85.16;98910.39;107335;1261;67592;-39
2023/12/13 04:12:02;;;;;;;52.10;25.30;;;;;;;2.79;85.02;98903.80;107288;1257;72705;-39
2023/12/13 04:14:30;;;;;;;54.10;25.60;;;;;;;2.86;84.48;98902.30;107291;1257;59839;-40
2023/12/13 04:16:57;;;;;;;49.70;26.30;;;;;;;2.87;84.32;98900.59;107285;1255;60028;-40
2023/12/13 04:19:25;;;;;;;58.80;26.90;;;;;;;2.85;84.41;98903.56;107315;1254;73521;-40
2023/12/13 04:21:52;;;;;;;54.50;25.10;;;;;;;2.85;84.34;98893.27;107317;1255;67557;-39
2023/12/13 04:24:20;;;;;;;49.20;23.80;;;;;;;2.86;84.37;98894.67;107310;1257;72019;-39
2023/12/13 04:26:48;;;;;;;50.20;26.60;;;;;;;2.94;84.10;98892.70;107283;1257;60889;-40
2023/12/13 04:29:15;;;;;;;49.80;25.60;;;;;;;3.01;83.64;98896.25;107273;1254;60027;-39
2023/12/13 04:31:43;;;;;;;56.00;24.90;;;;;;;3.02;83.55;98899.66;107350;1254;71729;-39
2023/12/13 04:34:10;;;;;;;52.50;26.10;;;;;;;3.00;83.45;98905.05;107293;1257;67573;-40
2023/12/13 04:36:38;;;;;;;51.00;24.40;;;;;;;2.97;83.24;98910.26;107314;1255;72659;-39
2023/12/13 04:39:05;;;;;;;50.20;25.80;;;;;;;2.90;83.14;98912.42;107307;1257;60856;-39
2023/12/13 04:41:33;;;;;;;41.80;23.70;;;;;;;2.86;82.88;98917.06;107313;1254;59698;-40
2023/12/13 04:44:01;;;;;;;45.40;24.50;;;;;;;2.87;82.98;98917.79;107325;1254;71946;-40
2023/12/13 04:46:28;;;;;;;54.60;25.70;;;;;;;2.86;83.19;98921.94;107330;1254;65994;-40
2023/12/13 04:48:56;;;;;;;51.20;25.80;;;;;;;2.85;83.33;98919.86;107334;1260;72979;-40
2023/12/13 04:51:23;;;;;;;54.60;26.70;;;;;;;2.89;83.38;98925.91;107323;1260;59612;-40
2023/12/13 04:53:52;;;;;;;44.60;23.70;;;;;;;2.89;83.19;98928.14;107295;1257;60008;-39
2023/12/13 04:56:19;;;;;;;43.90;24.30;;;;;;;2.95;83.06;98926.08;107340;1257;73101;-40
2023/12/13 04:58:46;;;;;;;46.70;26.00;;;;;;;3.02;82.93;98922.95;107287;1257;66660;-40
2023/12/13 05:01:14;;;;;;;48.90;25.10;;;;;;;3.05;82.90;98926.66;107406;1256;72673;-40
2023/12/13 05:03:42;;;;;;;46.10;25.10;;;;;;;3.03;82.84;98926.71;107283;1256;59641;-40
2023/12/13 05:06:14;;;;;;;52.90;25.70;;;;;;;3.00;82.82;98928.73;107327;1257;59606;-39
2023/12/13 05:08:42;;;;;;;46.40;24.90;;;;;;;2.99;82.78;98933.45;107251;1257;73249;-40
2023/12/13 05:11:09;;;;;;;44.90;23.90;;;;;;;3.03;82.37;98935.76;107285;1257;66616;-40
2023/12/13 05:13:37;;;;;;;42.30;23.40;;;;;;;3.08;82.28;98933.89;107284;1257;72672;-40
2023/12/13 05:16:06;;;;;;;48.20;24.90;;;;;;;3.04;82.44;98921.34;107244;1257;59879;-39
2023/12/13 05:18:33;;;;;;;46.10;24.90;;;;;;;3.05;82.39;98928.20;107148;1262;60041;-40
2023/12/13 05:21:04;;;;;;;46.70;24.00;;;;;;;3.01;82.54;98926.50;107257;1257;71034;-40
2023/12/13 05:23:31;;;;;;;46.00;24.40;;;;;;;2.99;82.55;98924.34;107294;1257;65852;-39
2023/12/13 05:25:59;;;;;;;43.50;23.30;;;;;;;3.07;82.33;98925.67;107279;1257;73289;-39
2023/12/13 05:28:26;;;;;;;46.80;24.60;;;;;;;3.15;82.12;98926.27;107280;1260;60077;-40
2023/12/13 05:30:54;;;;;;;48.30;26.10;;;;;;;3.16;82.16;98925.40;107259;1254;59612;-40
2023/12/13 05:33:21;;;;;;;49.20;25.10;;;;;;;3.14;82.19;98925.03;106531;1260;1002935;-40
2023/12/13 05:35:49;;;;;;;53.80;26.60;;;;;;;3.10;82.29;98925.46;107306;1257;66326;-39
2023/12/13 05:38:17;;;;;;;48.90;24.90;;;;;;;3.10;82.33;98928.00;107281;1256;72667;-39
2023/12/13 05:40:44;;;;;;;47.60;25.30;;;;;;;3.09;82.18;98928.95;107297;1262;60892;-39
2023/12/13 05:43:12;;;;;;;49.90;26.00;;;;;;;3.12;81.92;98926.76;107334;1260;60129;-40
2023/12/13 05:45:39;;;;;;;44.90;24.90;;;;;;;3.15;81.82;98929.04;107242;1256;72036;-39
2023/12/13 05:48:07;;;;;;;45.10;25.60;;;;;;;3.14;81.96;98931.98;107237;1256;67602;-38
2023/12/13 05:50:34;;;;;;;42.70;24.60;;;;;;;3.09;82.07;98935.05;107248;1262;72695;-39
2023/12/13 05:53:02;;;;;;;47.50;25.30;;;;;;;3.08;82.30;98933.58;107231;1257;59625;-39
2023/12/13 05:55:29;;;;;;;50.50;27.90;;;;;;;3.05;82.21;98940.58;107236;1262;60000;-39
2023/12/13 05:57:57;;;;;;;45.20;24.30;;;;;;;3.08;82.01;98935.59;107228;1256;73066;-39
2023/12/13 06:00:25;;;;;;;44.20;25.50;;;;;;;3.12;82.03;98939.39;107240;1258;66310;-39
2023/12/13 06:02:52;;;;;;;44.00;23.60;;;;;;;3.08;82.06;98939.68;107219;1256;71447;-39
2023/12/13 06:05:24;;;;;;;71.40;33.60;;;;;;;3.01;82.13;98950.36;107232;1262;59727;-39
2023/12/13 06:07:51;;;;;;;49.60;27.00;;;;;;;2.94;82.36;98952.04;107352;1256;60035;-40
2023/12/13 06:10:19;;;;;;;49.40;25.40;;;;;;;2.89;82.55;98954.45;107264;1257;73036;-38
2023/12/13 06:12:50;;;;;;;51.20;25.10;;;;;;;2.90;82.43;98950.13;107254;1257;67590;-38
2023/12/13 06:15:21;;;;;;;49.20;26.00;;;;;;;2.96;82.35;98948.10;107205;1256;72671;-38
2023/12/13 06:17:49;;;;;;;49.50;26.30;;;;;;;2.99;82.47;98951.60;107280;1257;60104;-38
2023/12/13 06:20:17;;;;;;;53.10;27.70;;;;;;;2.96;82.43;98949.33;107221;1256;60031;-38
2023/12/13 06:22:44;;;;;;;49.40;26.10;;;;;;;2.93;82.69;98951.41;107255;1258;73075;-38
2023/12/13 06:25:12;;;;;;;52.40;25.40;;;;;;;2.90;82.54;98951.43;107213;1262;68096;-38
2023/12/13 06:27:40;;;;;;;49.90;25.40;;;;;;;2.92;82.48;98951.98;107269;1261;72779;-38
2023/12/13 06:30:08;;;;;;;50.90;25.90;;;;;;;3.00;82.35;98964.55;107194;1255;59590;-40
2023/12/13 06:32:36;;;;;;;220.10;80.50;;;;;;;2.96;82.24;98966.99;107321;1260;59712;-41
2023/12/13 06:35:04;;;;;;;248.40;90.20;;;;;;;2.84;82.45;98969.70;107267;1256;73097;-40
2023/12/13 06:37:31;;;;;;;95.10;38.30;;;;;;;2.75;82.77;98969.14;107298;1260;67882;-39
2023/12/13 06:39:59;;;;;;;134.70;60.00;;;;;;;2.74;83.04;98966.81;107274;1257;72665;-40
2023/12/13 06:42:28;;;;;;;98.80;43.90;;;;;;;2.82;83.07;98968.54;107299;1260;60977;-40
2023/12/13 06:44:56;;;;;;;59.30;29.70;;;;;;;2.90;82.93;98965.44;107277;1257;59473;-40
2023/12/13 06:47:23;;;;;;;91.20;49.00;;;;;;;2.91;82.81;98969.42;107269;1257;73081;-40
2023/12/13 06:49:54;;;;;;;57.70;31.60;;;;;;;2.88;83.07;98969.79;107310;1257;67560;-40
2023/12/13 06:52:22;;;;;;;52.60;27.90;;;;;;;2.85;83.14;98968.98;107242;1258;71779;-40
2023/12/13 06:54:49;;;;;;;56.30;28.00;;;;;;;2.82;82.93;98971.96;107248;1257;60852;-40
2023/12/13 06:57:17;;;;;;;52.00;28.50;;;;;;;2.86;82.96;98969.54;107199;1260;60026;-39
2023/12/13 06:59:44;;;;;;;52.90;28.10;;;;;;;2.90;82.83;98974.98;107221;1260;73841;-40
2023/12/13 07:02:12;;;;;;;56.80;30.20;;;;;;;2.93;83.16;98981.14;107262;1257;67214;-40
2023/12/13 07:04:42;;;;;;;57.30;29.10;;;;;;;2.91;82.81;98975.20;107213;1258;72690;-40
2023/12/13 07:07:14;;;;;;;62.50;32.60;;;;;;;2.89;82.86;98979.83;107256;1260;60431;-40
2023/12/13 07:09:45;;;;;;;54.60;29.60;;;;;;;2.85;82.99;98980.44;107266;1256;60477;-39
2023/12/13 07:12:13;;;;;;;69.80;37.20;;;;;;;2.90;82.73;98983.92;107239;1257;73222;-40
2023/12/13 07:14:40;;;;;;;70.60;39.20;;;;;;;2.94;82.49;98986.50;107274;1260;67942;-40
2023/12/13 07:17:08;;;;;;;60.60;31.30;;;;;;;2.93;82.54;98988.96;107233;1257;72718;-40
2023/12/13 07:19:36;;;;;;;58.70;30.10;;;;;;;2.87;82.53;98986.48;107267;1258;60466;-40
2023/12/13 07:22:04;;;;;;;57.40;31.20;;;;;;;2.80;82.55;98985.66;107271;1257;60438;-40
2023/12/13 07:24:31;;;;;;;62.10;30.50;;;;;;;2.76;82.86;98982.65;107198;1257;73882;-40
2023/12/13 07:26:59;;;;;;;56.70;30.20;;;;;;;2.81;82.76;98983.15;107256;1257;67560;-40
2023/12/13 07:29:29;;;;;;;57.50;29.90;;;;;;;2.85;82.47;98981.77;107257;1259;72657;-40
2023/12/13 07:31:57;;;;;;;60.40;31.20;;;;;;;2.85;82.67;98979.73;107217;1259;59232;-40
2023/12/13 07:34:24;;;;;;;58.60;30.40;;;;;;;2.82;82.67;98975.93;107309;1260;60326;-39
2023/12/13 07:36:53;;;;;;;58.80;30.60;;;;;;;2.81;82.88;98971.30;106494;1258;1002898;-40
2023/12/13 07:39:21;;;;;;;52.50;27.80;;;;;;;2.83;82.85;98973.01;107369;1260;67778;-40
2023/12/13 07:41:49;;;;;;;52.30;28.90;;;;;;;2.87;82.59;98978.17;107265;1260;72684;-40
2023/12/13 07:44:16;;;;;;;55.80;28.50;;;;;;;2.90;82.51;98972.55;107291;1261;60530;-39
2023/12/13 07:46:44;;;;;;;56.80;28.00;;;;;;;2.91;82.76;98968.55;107291;1257;60356;-40
2023/12/13 07:49:12;;;;;;;55.00;29.30;;;;;;;2.94;82.83;98965.68;107298;1257;73847;-40
2023/12/13 07:51:39;;;;;;;56.70;30.20;;;;;;;2.99;82.95;98968.79;107316;1260;67641;-40
2023/12/13 07:54:09;;;;;;;51.30;27.50;;;;;;;3.05;82.91;98969.40;107270;1260;72271;-40
2023/12/13 07:56:36;;;;;;;50.80;27.90;;;;;;;3.16;82.58;98972.23;107285;1257;60840;-40
2023/12/13 07:59:04;;;;;;;56.50;28.10;;;;;;;3.27;82.30;98968.42;107275;1257;60978;-40
2023/12/13 08:01:32;;;;;;;50.50;27.80;;;;;;;3.33;82.06;98970.20;107309;1260;73859;-39
2023/12/13 08:04:00;;;;;;;52.00;27.90;;;;;;;3.34;81.83;98968.66;107282;1259;65928;-39
2023/12/13 08:06:27;;;;;;;53.70;28.20;;;;;;;3.35;81.58;98974.41;107266;1261;72754;-40
2023/12/13 08:08:55;;;;;;;48.30;26.70;;;;;;;3.35;81.41;98971.27;107277;1258;60446;-39
2023/12/13 08:11:22;;;;;;;47.80;26.80;;;;;;;3.37;81.34;98972.14;107277;1257;60320;-39
2023/12/13 08:13:50;;;;;;;48.00;28.40;;;;;;;3.43;80.76;98970.52;107274;1262;72687;-39
2023/12/13 08:16:18;;;;;;;50.30;28.90;;;;;;;3.42;80.75;98969.95;107318;1259;67871;-38
2023/12/13 08:18:46;;;;;;;46.70;27.30;;;;;;;3.40;80.75;98965.19;107303;1257;72715;-38
2023/12/13 08:21:14;;;;;;;51.00;27.70;;;;;;;3.40;81.07;98962.35;107292;1259;60558;-38
2023/12/13 08:23:42;;;;;;;55.70;29.20;;;;;;;3.38;80.81;98958.45;107232;1258;60477;-38
2023/12/13 08:26:12;;;;;;;54.00;28.10;;;;;;;3.38;80.79;98957.48;107283;1257;73970;-38
2023/12/13 08:28:40;;;;;;;46.90;26.70;;;;;;;3.43;80.55;98961.65;107309;1257;66756;-38
2023/12/13 08:31:08;;;;;;;46.90;26.40;;;;;;;3.46;80.31;98965.61;107297;1261;73359;-38
2023/12/13 08:33:50;;;;;;;58.40;31.50;;;;;;;3.47;80.34;98964.41;107259;1257;60354;-38
2023/12/13 08:36:18;;;;;;;48.30;28.10;;;;;;;3.43;80.30;98965.87;107286;1259;60343;-38
2023/12/13 08:38:45;;;;;;;56.90;30.80;;;;;;;3.39;80.14;98967.63;107274;1260;73748;-38
2023/12/13 08:41:13;;;;;;;53.30;28.30;;;;;;;3.34;80.30;98969.19;107260;1256;67875;-38
2023/12/13 08:43:41;;;;;;;68.40;36.40;;;;;;;3.28;80.39;98955.84;107280;1262;72679;-38
2023/12/13 08:46:10;;;;;;;49.50;28.70;;;;;;;3.42;80.23;98968.05;107313;1259;60566;-38
2023/12/13 08:48:38;;;;;;;50.10;27.20;;;;;;;3.41;80.27;98968.46;107269;1256;60332;-39
2023/12/13 08:51:06;;;;;;;53.30;30.10;;;;;;;3.39;80.56;98968.06;107347;1257;73837;-38
2023/12/13 08:53:34;;;;;;;53.80;29.10;;;;;;;3.38;80.58;98967.98;107307;1257;67561;-38
2023/12/13 08:56:02;;;;;;;51.20;28.40;;;;;;;3.37;80.41;98967.98;107294;1257;72281;-38
2023/12/13 08:58:32;;;;;;;50.50;27.40;;;;;;;3.40;80.48;98961.38;107252;1257;60309;-39
2023/12/13 09:01:00;;;;;;;49.50;27.40;;;;;;;3.46;80.28;98961.17;107323;1258;60507;-38
2023/12/13 09:03:27;;;;;;;47.40;27.20;;;;;;;3.47;80.23;98961.73;107259;1258;72646;-38
2023/12/13 09:05:55;;;;;;;55.40;29.10;;;;;;;3.35;80.08;98948.48;107297;1260;68400;-38
2023/12/13 09:08:23;;;;;;;51.90;28.40;;;;;;;3.38;80.23;98959.47;107315;1257;72685;-38
2023/12/13 09:10:50;;;;;;;50.10;27.50;;;;;;;3.37;80.47;98959.95;107304;1256;60414;-38
2023/12/13 09:13:18;;;;;;;50.90;28.20;;;;;;;3.40;80.28;98958.91;107270;1257;60512;-38
2023/12/13 09:15:46;;;;;;;51.00;28.40;;;;;;;3.45;79.95;98960.38;107276;1257;73869;-38
2023/12/13 09:18:14;;;;;;;51.30;28.70;;;;;;;3.45;80.18;98956.82;107256;1257;66914;-38
2023/12/13 09:20:41;;;;;;;54.30;29.90;;;;;;;3.46;80.15;98962.94;107277;1257;72753;-39
2023/12/13 09:23:22;;;;;;;54.60;30.50;;;;;;;3.45;80.08;98961.20;107230;1258;60566;-38
2023/12/13 09:25:50;;;;;;;53.80;29.20;;;;;;;3.41;79.83;98967.46;107228;1257;60234;-38
2023/12/13 09:28:18;;;;;;;46.60;27.00;;;;;;;3.38;79.65;98964.60;107182;1257;73903;-38
2023/12/13 09:30:46;;;;;;;46.90;28.70;;;;;;;3.45;79.85;98966.09;107244;1261;66590;-38
2023/12/13 09:33:14;;;;;;;54.00;31.50;;;;;;;3.46;79.78;98967.66;107262;1256;72702;-38
2023/12/13 09:35:42;;;;;;;53.10;30.30;;;;;;;3.43;79.91;98965.47;107283;1259;60392;-38
2023/12/13 09:38:10;;;;;;;55.60;31.30;;;;;;;3.39;79.92;98958.80;107251;1257;60368;-38
2023/12/13 09:40:38;;;;;;;59.40;32.10;;;;;;;3.33;80.04;98959.55;107328;1257;73820;-38
2023/12/13 09:43:05;;;;;;;64.70;33.40;;;;;;;3.31;80.04;98960.16;107220;1258;66632;-38
2023/12/13 09:45:33;;;;;;;50.80;28.50;;;;;;;3.35;80.09;98956.20;107101;1263;71481;-39
2023/12/13 09:48:02;;;;;;;53.90;30.80;;;;;;;3.43;80.05;98956.60;107114;1257;60447;-38
2023/12/13 09:50:29;;;;;;;53.30;30.50;;;;;;;3.47;79.85;98952.02;107239;1257;60595;-38
2023/12/13 09:52:57;;;;;;;54.40;31.10;;;;;;;3.44;79.72;98949.89;107231;1255;73873;-39
2023/12/13 09:55:25;;;;;;;56.80;32.60;;;;;;;3.41;80.01;98947.19;107080;1257;67879;-39
2023/12/13 09:57:53;;;;;;;51.90;29.40;;;;;;;3.40;79.83;98943.69;107133;1257;72725;-38
2023/12/13 10:00:21;;;;;;;48.60;28.70;;;;;;;3.45;79.79;98935.86;107153;1261;60868;-39
2023/12/13 10:02:48;;;;;;;50.50;30.00;;;;;;;3.57;79.82;98930.89;107115;1257;60292;-39
2023/12/13 10:05:17;;;;;;;55.40;32.30;;;;;;;3.64;79.72;98927.09;107237;1257;74084;-40
2023/12/13 10:07:45;;;;;;;54.60;31.30;;;;;;;3.69;79.66;98917.41;107291;1257;67576;-37
2023/12/13 10:10:12;;;;;;;58.00;33.60;;;;;;;3.74;79.37;98917.84;107194;1258;72699;-38
2023/12/13 10:12:40;;;;;;;58.70;34.60;;;;;;;3.73;79.04;98915.83;107251;1256;60379;-38
2023/12/13 10:15:10;;;;;;;53.90;31.30;;;;;;;3.66;78.96;98912.95;107110;1262;60347;-38
2023/12/13 10:17:39;;;;;;;53.30;29.20;;;;;;;3.77;78.57;98918.40;107236;1257;76022;-38
2023/12/13 10:20:10;;;;;;;53.20;32.30;;;;;;;3.81;78.39;98914.31;107275;1257;67556;-38
2023/12/13 10:22:39;;;;;;;51.90;30.50;;;;;;;3.84;78.59;98918.60;107239;1257;71453;-38
2023/12/13 10:25:07;;;;;;;54.20;31.50;;;;;;;3.84;78.62;98919.86;107348;1257;60312;-38
2023/12/13 10:27:35;;;;;;;54.50;30.00;;;;;;;3.84;78.47;98918.98;107267;1260;60451;-38
2023/12/13 10:30:04;;;;;;;58.80;31.00;;;;;;;3.85;78.61;98912.90;107233;1260;73897;-38
2023/12/13 10:32:32;;;;;;;50.80;29.20;;;;;;;3.88;78.54;98907.60;107347;1257;67939;-38
2023/12/13 10:35:03;;;;;;;54.30;32.50;;;;;;;3.99;78.45;98907.59;107266;1260;73086;-38
2023/12/13 10:37:35;;;;;;;53.30;29.00;;;;;;;4.11;78.37;98910.66;107211;1258;61138;-38
2023/12/13 10:40:04;;;;;;;47.80;28.70;;;;;;;4.22;78.27;98896.02;107223;1255;60457;-38
2023/12/13 10:42:32;;;;;;;49.30;29.40;;;;;;;4.33;78.24;98891.16;107348;1257;73907;-38
2023/12/13 10:45:00;;;;;;;48.70;28.10;;;;;;;4.46;78.15;98893.69;107208;1257;67593;-39
2023/12/13 10:47:27;;;;;;;49.80;28.20;;;;;;;4.63;77.71;98885.61;107209;1261;73816;-39
2023/12/13 10:49:55;;;;;;;48.80;28.40;;;;;;;4.83;76.85;98887.98;107067;1257;60857;-38
2023/12/13 10:52:25;;;;;;;53.60;33.20;;;;;;;5.04;76.40;98879.85;107345;1257;60428;-38
2023/12/13 10:54:53;;;;;;;46.80;28.10;;;;;;;5.22;76.06;98886.42;107405;1256;73833;-38
2023/12/13 10:57:21;;;;;;;44.30;26.60;;;;;;;5.38;75.26;98891.09;107286;1260;67646;-38
2023/12/13 10:59:48;;;;;;;45.00;27.00;;;;;;;5.51;74.30;98888.73;107229;1257;74695;-38
2023/12/13 11:02:18;;;;;;;43.60;25.70;;;;;;;5.58;73.22;98888.73;107281;1257;60459;-38
2023/12/13 11:04:46;;;;;;;38.50;24.40;;;;;;;5.62;72.63;98885.98;107340;1257;60459;-39
2023/12/13 11:07:14;;;;;;;36.00;22.20;;;;;;;5.73;72.27;98876.18;107318;1257;73904;-39
2023/12/13 11:09:50;;;;;;;36.00;22.90;;;;;;;5.86;71.43;98872.71;107316;1257;67556;-39
2023/12/13 11:12:18;;;;;;;39.50;23.20;;;;;;;5.86;71.10;98874.50;107392;1260;75301;-39
2023/12/13 11:14:48;;;;;;;42.00;24.70;;;;;;;5.84;71.10;98881.66;107303;1257;60354;-39
2023/12/13 11:17:18;;;;;;;35.00;22.70;;;;;;;5.82;70.94;98888.20;107367;1257;60365;-39
2023/12/13 11:19:46;;;;;;;38.20;23.40;;;;;;;5.81;70.91;98882.34;107461;1258;73113;-39
2023/12/13 11:22:14;;;;;;;35.90;22.50;;;;;;;5.79;70.85;98874.36;107374;1257;67578;-39